createdAt,value
2022-12-14T00:01:20.649Z,17.43
2022-12-14T00:03:50.176Z,17.27
2022-12-14T00:06:26.528Z,16.87
2022-12-14T00:08:57.905Z,15.33
2022-12-14T00:11:30.405Z,14.37
2022-12-14T00:14:01.599Z,15.50
2022-12-14T00:16:35.298Z,16.27
2022-12-14T00:19:06.091Z,15.60
2022-12-14T00:21:36.499Z,15.17
2022-12-14T00:24:06.961Z,15.73
2022-12-14T00:26:43.515Z,15.37
2022-12-14T00:29:14.413Z,16.80
2022-12-14T00:31:43.392Z,15.23
2022-12-14T00:34:19.542Z,16.63
2022-12-14T00:36:50.044Z,16.33
2022-12-14T00:39:19.257Z,14.57
2022-12-14T00:41:52.180Z,13.97
2022-12-14T00:44:22.860Z,14.83
2022-12-14T00:46:53.385Z,13.47
2022-12-14T00:49:22.366Z,16.43
2022-12-14T00:51:54.111Z,14.07
2022-12-14T00:54:23.244Z,14.50
2022-12-14T00:56:52.129Z,13.93
2022-12-14T00:59:27.321Z,15.37
2022-12-14T01:01:58.855Z,14.07
2022-12-14T01:04:29.793Z,12.43
2022-12-14T01:07:02.925Z,14.70
2022-12-14T01:09:44.749Z,14.97
2022-12-14T01:12:16.629Z,13.93
2022-12-14T01:14:46.595Z,14.60
2022-12-14T01:17:15.849Z,14.97
2022-12-14T01:19:45.517Z,13.17
2022-12-14T01:22:19.595Z,13.87
2022-12-14T01:24:48.951Z,13.60
2022-12-14T01:27:18.045Z,12.23
2022-12-14T01:29:47.343Z,14.23
2022-12-14T01:32:17.803Z,11.57
2022-12-14T01:34:46.750Z,14.83
2022-12-14T01:37:15.739Z,14.77
2022-12-14T01:39:46.388Z,15.00
2022-12-14T01:42:16.735Z,15.27
2022-12-14T01:44:56.415Z,14.00
2022-12-14T01:47:30.115Z,12.50
2022-12-14T01:50:04.831Z,12.30
2022-12-14T01:52:40.428Z,13.03
2022-12-14T01:55:14.779Z,12.57
2022-12-14T01:57:49.452Z,11.77
2022-12-14T02:00:18.618Z,14.07
2022-12-14T02:02:52.697Z,12.57
2022-12-14T02:05:26.861Z,13.83
2022-12-14T02:07:57.984Z,11.97
2022-12-14T02:10:30.970Z,13.87
2022-12-14T02:13:06.294Z,11.83
2022-12-14T02:15:40.168Z,11.57
2022-12-14T02:18:16.391Z,10.50
2022-12-14T02:21:07.310Z,10.00
2022-12-14T02:24:29.775Z,11.60
2022-12-14T02:27:11.662Z,11.37
2022-12-14T02:30:06.602Z,12.57
2022-12-14T02:33:02.520Z,12.10
2022-12-14T02:35:45.364Z,13.87
2022-12-14T02:38:26.820Z,11.80
2022-12-14T02:41:06.091Z,12.93
2022-12-14T02:43:45.705Z,12.43
2022-12-14T02:46:26.073Z,12.33
2022-12-14T02:49:00.994Z,12.20
2022-12-14T02:51:38.943Z,12.63
2022-12-14T02:54:14.965Z,12.57
2022-12-14T02:56:49.637Z,12.70
2022-12-14T02:59:21.997Z,12.50
2022-12-14T03:01:57.387Z,10.07
2022-12-14T03:04:28.875Z,13.77
2022-12-14T03:07:34.301Z,11.00
2022-12-14T03:10:10.496Z,10.60
2022-12-14T03:12:43.789Z,11.70
2022-12-14T03:15:16.928Z,12.83
2022-12-14T03:17:56.801Z,15.90
2022-12-14T03:20:27.481Z,14.73
2022-12-14T03:23:00.249Z,13.43
2022-12-14T03:25:34.932Z,13.33
2022-12-14T03:28:10.937Z,11.90
2022-12-14T03:31:00.034Z,13.00
2022-12-14T03:33:32.970Z,14.40
2022-12-14T03:36:08.011Z,13.43
2022-12-14T03:38:40.957Z,13.87
2022-12-14T03:41:21.242Z,12.67
2022-12-14T03:44:05.208Z,13.07
2022-12-14T03:46:42.122Z,11.83
2022-12-14T03:49:18.193Z,14.13
2022-12-14T03:51:59.605Z,14.43
2022-12-14T03:54:45.233Z,13.30
2022-12-14T03:57:21.953Z,12.23
2022-12-14T03:59:59.651Z,14.07
2022-12-14T04:02:40.689Z,13.87
2022-12-14T04:05:17.936Z,12.73
2022-12-14T04:07:56.979Z,14.17
2022-12-14T04:10:47.927Z,13.60
2022-12-14T04:13:40.476Z,13.40
2022-12-14T04:16:32.594Z,11.37
2022-12-14T04:19:09.048Z,12.10
2022-12-14T04:21:46.357Z,11.50
2022-12-14T04:24:37.982Z,14.70
2022-12-14T04:27:16.549Z,11.73
2022-12-14T04:29:57.448Z,12.37
2022-12-14T04:32:33.300Z,12.90
2022-12-14T04:35:08.371Z,12.87
2022-12-14T04:37:43.132Z,13.80
2022-12-14T04:40:16.090Z,13.23
2022-12-14T04:42:54.182Z,14.77
2022-12-14T04:45:31.812Z,16.20
2022-12-14T04:48:12.250Z,13.60
2022-12-14T04:50:47.002Z,13.30
2022-12-14T04:53:23.479Z,16.60
2022-12-14T04:56:01.203Z,13.47
2022-12-14T04:58:34.165Z,12.70
2022-12-14T05:01:24.866Z,14.57
2022-12-14T05:04:06.063Z,13.23
2022-12-14T05:06:46.113Z,13.53
2022-12-14T05:09:30.182Z,12.27
2022-12-14T05:12:07.032Z,12.57
2022-12-14T05:14:42.608Z,10.77
2022-12-14T05:17:30.329Z,12.77
2022-12-14T05:20:19.078Z,15.93
2022-12-14T05:22:49.892Z,14.63
2022-12-14T05:25:20.297Z,17.07
2022-12-14T05:27:49.782Z,17.97
2022-12-14T05:30:19.196Z,12.97
2022-12-14T05:32:48.257Z,12.73
2022-12-14T05:35:17.448Z,14.27
2022-12-14T05:37:46.701Z,12.90
2022-12-14T05:40:20.285Z,13.17
2022-12-14T05:42:55.422Z,14.27
2022-12-14T05:45:25.813Z,11.37
2022-12-14T05:47:55.582Z,11.23
2022-12-14T05:50:28.890Z,13.73
2022-12-14T05:52:58.636Z,12.60
2022-12-14T05:55:32.268Z,12.63
2022-12-14T05:58:03.744Z,12.67
2022-12-14T06:00:36.417Z,13.93
2022-12-14T06:03:08.607Z,13.17
2022-12-14T06:05:45.986Z,11.67
2022-12-14T06:08:15.282Z,12.67
2022-12-14T06:10:45.577Z,13.30
2022-12-14T06:13:18.445Z,13.07
2022-12-14T06:15:47.412Z,12.70
2022-12-14T06:18:16.214Z,14.40
2022-12-14T06:20:45.066Z,13.87
2022-12-14T06:23:15.211Z,14.57
2022-12-14T06:25:45.710Z,11.83
2022-12-14T06:28:16.782Z,14.73
2022-12-14T06:30:51.858Z,12.13
2022-12-14T06:33:21.789Z,12.27
2022-12-14T06:35:51.111Z,10.87
2022-12-14T06:38:20.637Z,12.60
2022-12-14T06:40:51.476Z,11.67
2022-12-14T06:43:20.794Z,12.97
2022-12-14T06:45:50.108Z,10.33
2022-12-14T06:48:19.111Z,14.17
2022-12-14T06:50:48.205Z,11.57
2022-12-14T06:53:17.313Z,13.97
2022-12-14T06:55:50.059Z,12.33
2022-12-14T06:58:21.160Z,13.13
2022-12-14T07:00:50.130Z,13.60
2022-12-14T07:03:19.341Z,14.23
2022-12-14T07:05:49.220Z,13.47
2022-12-14T07:08:18.330Z,11.97
2022-12-14T07:10:47.230Z,17.90
2022-12-14T07:13:16.817Z,16.90
2022-12-14T07:15:53.234Z,14.50
2022-12-14T07:18:22.533Z,13.27
2022-12-14T07:21:00.748Z,14.63
2022-12-14T07:23:32.670Z,13.27
2022-12-14T07:26:09.189Z,10.77
2022-12-14T07:28:38.594Z,11.97
2022-12-14T07:31:13.520Z,11.63
2022-12-14T07:33:43.674Z,12.13
2022-12-14T07:36:16.111Z,12.47
2022-12-14T07:38:47.327Z,11.67
2022-12-14T07:41:22.422Z,12.03
2022-12-14T07:43:53.839Z,12.63
2022-12-14T07:46:25.850Z,13.20
2022-12-14T07:48:57.792Z,13.23
2022-12-14T07:51:28.839Z,12.83
2022-12-14T07:53:57.994Z,10.63
2022-12-14T07:56:28.829Z,13.43
2022-12-14T07:58:59.157Z,9.33
2022-12-14T08:01:31.765Z,11.70
2022-12-14T08:04:02.414Z,10.83
2022-12-14T08:06:32.000Z,13.50
2022-12-14T08:09:01.669Z,11.00
2022-12-14T08:11:31.056Z,11.77
2022-12-14T08:14:01.883Z,11.37
2022-12-14T08:16:33.268Z,12.40
2022-12-14T08:19:03.464Z,11.27
2022-12-14T08:21:40.377Z,13.27
2022-12-14T08:24:11.429Z,13.50
2022-12-14T08:26:41.495Z,11.20
2022-12-14T08:29:12.737Z,13.33
2022-12-14T08:31:43.177Z,11.43
2022-12-14T08:34:12.002Z,12.17
2022-12-14T08:36:40.665Z,11.83
2022-12-14T08:39:15.752Z,13.33
2022-12-14T08:41:44.793Z,10.07
2022-12-14T08:44:17.021Z,11.47
2022-12-14T08:46:47.725Z,12.23
2022-12-14T08:49:16.849Z,11.87
2022-12-14T08:51:45.548Z,13.03
2022-12-14T08:54:15.443Z,12.50
2022-12-14T08:56:44.311Z,12.57
2022-12-14T08:59:30.308Z,13.17
2022-12-14T09:02:04.284Z,11.37
2022-12-14T09:04:33.251Z,14.13
2022-12-14T09:07:02.055Z,13.03
2022-12-14T09:09:30.974Z,13.63
2022-12-14T09:12:03.781Z,13.40
2022-12-14T09:14:33.316Z,13.40
2022-12-14T09:17:04.093Z,13.27
2022-12-14T09:19:33.547Z,14.07
2022-12-14T09:22:02.719Z,12.87
2022-12-14T09:24:31.671Z,13.67
2022-12-14T09:27:01.521Z,11.33
2022-12-14T09:29:31.162Z,13.60
2022-12-14T09:32:00.085Z,11.13
2022-12-14T09:34:30.396Z,14.53
2022-12-14T09:37:04.552Z,11.43
2022-12-14T09:39:33.276Z,11.27
2022-12-14T09:42:14.086Z,10.83
2022-12-14T09:44:52.901Z,11.07
2022-12-14T09:47:29.526Z,12.83
2022-12-14T09:50:03.422Z,10.90
2022-12-14T09:52:38.301Z,10.93
2022-12-14T09:55:22.000Z,10.47
2022-12-14T09:57:57.049Z,13.57
2022-12-14T10:00:26.962Z,12.93
2022-12-14T10:03:16.602Z,11.97
2022-12-14T10:06:10.468Z,13.03
2022-12-14T10:08:48.195Z,12.00
2022-12-14T10:11:30.321Z,13.23
2022-12-14T10:14:15.029Z,10.80
2022-12-14T10:16:53.033Z,11.43
2022-12-14T10:19:35.182Z,13.97
2022-12-14T10:22:13.675Z,10.60
2022-12-14T10:24:45.505Z,11.37
2022-12-14T10:28:01.207Z,11.67
2022-12-14T10:30:23.631Z,13.53
2022-12-14T10:32:55.444Z,11.57
2022-12-14T10:35:35.784Z,12.03
2022-12-14T10:38:08.046Z,11.20
2022-12-14T10:40:38.070Z,11.50
2022-12-14T10:43:22.993Z,10.33
2022-12-14T10:45:59.953Z,12.13
2022-12-14T10:48:47.767Z,10.60
2022-12-14T10:51:21.161Z,11.20
2022-12-14T10:53:56.134Z,10.20
2022-12-14T10:56:28.630Z,10.50
2022-12-14T10:59:35.132Z,11.07
2022-12-14T11:02:11.063Z,11.07
2022-12-14T11:04:44.794Z,11.07
2022-12-14T11:07:15.938Z,9.80
2022-12-14T11:09:46.971Z,11.27
2022-12-14T11:12:22.971Z,10.43
2022-12-14T11:14:58.689Z,10.30
2022-12-14T11:17:37.672Z,10.70
2022-12-14T11:20:19.197Z,10.63
2022-12-14T11:22:51.534Z,11.43
2022-12-14T11:25:48.184Z,10.20
2022-12-14T11:28:25.714Z,11.93
2022-12-14T11:30:59.527Z,10.17
2022-12-14T11:33:34.627Z,11.77
2022-12-14T11:36:04.302Z,10.40
2022-12-14T11:38:33.475Z,10.83
2022-12-14T11:41:11.064Z,10.53
2022-12-14T11:43:41.401Z,10.40
2022-12-14T11:46:10.659Z,11.63
2022-12-14T11:48:50.286Z,12.03
2022-12-14T11:51:19.129Z,11.67
2022-12-14T11:54:04.459Z,11.77
2022-12-14T11:56:39.032Z,10.87
2022-12-14T11:59:14.597Z,10.40
2022-12-14T12:01:43.961Z,10.27
2022-12-14T12:04:17.749Z,12.00
2022-12-14T12:06:47.077Z,9.13
2022-12-14T12:09:27.543Z,14.33
2022-12-14T12:11:58.341Z,12.07
2022-12-14T12:14:31.350Z,10.53
2022-12-14T12:17:00.368Z,10.63
2022-12-14T12:19:35.256Z,9.47
2022-12-14T12:22:06.285Z,11.73
2022-12-14T12:25:01.146Z,13.00
2022-12-14T12:27:31.372Z,12.03
2022-12-14T12:30:07.205Z,11.97
2022-12-14T12:32:41.065Z,12.83
2022-12-14T12:35:18.121Z,10.73
2022-12-14T12:37:50.259Z,13.07
2022-12-14T12:40:27.017Z,12.00
2022-12-14T12:43:20.352Z,11.50
2022-12-14T12:45:59.687Z,11.77
2022-12-14T12:48:34.191Z,11.83
2022-12-14T12:51:07.133Z,11.23
2022-12-14T12:53:44.228Z,10.63
2022-12-14T12:56:18.229Z,12.33
2022-12-14T12:59:08.434Z,12.90
2022-12-14T13:01:42.343Z,12.10
2022-12-14T13:04:17.045Z,13.50
2022-12-14T13:06:54.523Z,12.83
2022-12-14T13:09:36.591Z,12.47
2022-12-14T13:12:08.252Z,13.90
2022-12-14T13:14:42.917Z,12.30
2022-12-14T13:17:29.437Z,12.60
2022-12-14T13:20:00.925Z,9.13
2022-12-14T13:22:32.831Z,12.23
2022-12-14T13:25:07.447Z,12.30
2022-12-14T13:28:00.573Z,11.80
2022-12-14T13:30:47.843Z,12.80
2022-12-14T13:33:43.189Z,13.63
2022-12-14T13:36:45.839Z,13.07
2022-12-14T13:39:50.998Z,10.87
2022-12-14T13:42:27.415Z,12.70
2022-12-14T13:44:59.814Z,11.77
2022-12-14T13:47:38.005Z,15.97
2022-12-14T13:50:35.785Z,12.60
2022-12-14T13:53:16.374Z,13.57
2022-12-14T13:56:03.067Z,13.27
2022-12-14T13:58:39.145Z,14.13
2022-12-14T14:01:17.221Z,13.80
2022-12-14T14:03:53.612Z,13.53
2022-12-14T14:06:38.573Z,13.83
2022-12-14T14:09:59.672Z,12.70
2022-12-14T14:12:38.214Z,12.70
2022-12-14T14:16:27.475Z,13.63
2022-12-14T14:18:50.428Z,14.17
2022-12-14T14:21:38.889Z,10.63
2022-12-14T14:24:25.495Z,12.73
2022-12-14T14:27:09.902Z,11.13
2022-12-14T14:29:45.370Z,12.80
2022-12-14T14:32:42.895Z,11.43
2022-12-14T14:35:27.901Z,13.63
2022-12-14T14:38:02.043Z,10.17
2022-12-14T14:41:13.945Z,10.40
2022-12-14T14:43:33.484Z,11.50
2022-12-14T14:46:05.708Z,14.10
2022-12-14T14:48:42.412Z,15.07
2022-12-14T14:51:32.472Z,13.27
2022-12-14T14:55:11.039Z,11.37
2022-12-14T14:57:37.007Z,10.60
2022-12-14T15:00:13.669Z,12.73
2022-12-14T15:02:44.010Z,13.10
2022-12-14T15:08:19.844Z,13.87
2022-12-14T15:10:52.244Z,15.17
2022-12-14T15:13:24.936Z,13.57
2022-12-14T15:15:56.783Z,11.07
2022-12-14T15:18:27.633Z,14.00
2022-12-14T15:21:00.879Z,13.83
2022-12-14T15:23:34.399Z,14.33
2022-12-14T15:26:16.329Z,10.90
2022-12-14T15:28:55.651Z,12.50
2022-12-14T15:31:30.608Z,10.77
2022-12-14T15:34:02.976Z,10.70
2022-12-14T15:36:35.679Z,14.27
2022-12-14T15:39:04.714Z,12.93
2022-12-14T15:41:35.082Z,12.80
2022-12-14T15:44:04.300Z,12.00
2022-12-14T15:46:35.365Z,14.13
2022-12-14T15:49:08.318Z,11.90
2022-12-14T15:51:39.576Z,11.60
2022-12-14T15:54:15.143Z,12.07
2022-12-14T15:56:46.778Z,15.80
2022-12-14T15:59:20.982Z,11.70
2022-12-14T16:01:56.035Z,11.70
2022-12-14T16:04:29.371Z,12.07
2022-12-14T16:07:09.493Z,11.60
2022-12-14T16:09:43.268Z,15.10
2022-12-14T16:12:21.505Z,11.97
2022-12-14T16:14:54.487Z,12.43
2022-12-14T16:17:27.598Z,11.60
2022-12-14T16:20:00.683Z,12.63
2022-12-14T16:22:31.921Z,13.23
2022-12-14T16:25:19.868Z,14.47
2022-12-14T16:27:52.960Z,10.47
2022-12-14T16:30:29.990Z,12.63
2022-12-14T16:33:17.459Z,12.80
2022-12-14T16:35:47.524Z,12.83
2022-12-14T16:38:18.149Z,12.03
2022-12-14T16:40:56.158Z,13.30
2022-12-14T16:43:33.532Z,12.70
2022-12-14T16:46:12.916Z,11.40
2022-12-14T16:48:44.573Z,13.50
2022-12-14T16:51:44.892Z,10.40
2022-12-14T16:54:27.656Z,12.00
2022-12-14T16:57:02.573Z,12.67
2022-12-14T16:59:42.969Z,12.83
2022-12-14T17:02:30.000Z,15.27
2022-12-14T17:05:01.561Z,13.03
2022-12-14T17:07:33.066Z,13.70
2022-12-14T17:10:01.946Z,12.47
2022-12-14T17:12:31.124Z,12.57
2022-12-14T17:15:01.682Z,10.77
2022-12-14T17:17:35.006Z,13.57
2022-12-14T17:20:09.217Z,14.43
2022-12-14T17:22:39.848Z,13.47
2022-12-14T17:25:09.029Z,13.20
2022-12-14T17:27:37.672Z,12.20
2022-12-14T17:30:14.719Z,11.40
2022-12-14T17:32:46.130Z,12.60
2022-12-14T17:35:19.392Z,11.40
2022-12-14T17:37:49.340Z,12.97
2022-12-14T17:40:18.419Z,11.17
2022-12-14T17:42:53.473Z,12.23
2022-12-14T17:45:26.153Z,12.43
2022-12-14T17:47:56.211Z,12.57
2022-12-14T17:50:26.196Z,11.80
2022-12-14T17:52:55.152Z,15.38
2022-12-14T17:55:27.368Z,12.30
2022-12-14T17:57:57.974Z,9.53
2022-12-14T18:00:48.670Z,10.30
2022-12-14T18:03:21.113Z,10.33
2022-12-14T18:05:51.345Z,11.70
2022-12-14T18:08:31.181Z,9.87
2022-12-14T18:11:04.122Z,9.03
2022-12-14T18:13:36.747Z,13.43
2022-12-14T18:16:09.766Z,13.97
2022-12-14T18:18:39.962Z,13.43
2022-12-14T18:21:21.100Z,13.67
2022-12-14T18:23:51.512Z,11.80
2022-12-14T18:26:24.391Z,14.37
2022-12-14T18:28:55.473Z,12.87
2022-12-14T18:31:30.265Z,14.03
2022-12-14T18:33:59.358Z,14.37
2022-12-14T18:36:28.760Z,11.47
2022-12-14T18:38:58.409Z,12.90
2022-12-14T18:41:31.612Z,10.90
2022-12-14T18:44:01.807Z,12.57
2022-12-14T18:46:35.624Z,13.93
2022-12-14T18:49:08.141Z,12.50
2022-12-14T18:51:37.251Z,12.87
2022-12-14T18:54:06.580Z,12.93
2022-12-14T18:56:35.853Z,14.73
2022-12-14T18:59:05.346Z,14.73
2022-12-14T19:01:37.867Z,13.37
2022-12-14T19:04:07.781Z,12.20
2022-12-14T19:06:46.223Z,12.20
2022-12-14T19:09:16.134Z,14.40
2022-12-14T19:11:45.908Z,13.13
2022-12-14T19:14:17.064Z,11.57
2022-12-14T19:16:47.633Z,15.93
2022-12-14T19:19:23.523Z,12.57
2022-12-14T19:21:56.296Z,14.47
2022-12-14T19:24:27.979Z,14.40
2022-12-14T19:26:59.914Z,12.60
2022-12-14T19:29:37.203Z,12.70
2022-12-14T19:32:07.939Z,11.33
2022-12-14T19:34:40.824Z,13.27
2022-12-14T19:37:09.813Z,14.70
2022-12-14T19:39:38.721Z,11.73
2022-12-14T19:42:12.179Z,13.70
2022-12-14T19:44:41.843Z,13.07
2022-12-14T19:47:13.086Z,12.50
2022-12-14T19:49:44.396Z,11.53
2022-12-14T19:52:17.258Z,10.77
2022-12-14T19:54:46.027Z,12.97
2022-12-14T19:57:16.374Z,11.93
2022-12-14T19:59:45.548Z,10.53
2022-12-14T20:02:16.893Z,10.60
2022-12-14T20:04:46.186Z,12.43
2022-12-14T20:07:15.814Z,10.30
2022-12-14T20:09:44.745Z,9.83
2022-12-14T20:12:13.886Z,9.87
2022-12-14T20:14:43.320Z,11.03
2022-12-14T20:17:13.141Z,10.80
2022-12-14T20:19:43.843Z,11.03
2022-12-14T20:22:15.181Z,11.40
2022-12-14T20:24:52.181Z,11.43
2022-12-14T20:27:21.634Z,9.70
2022-12-14T20:29:51.159Z,10.70
2022-12-14T20:32:20.369Z,9.80
2022-12-14T20:34:51.227Z,10.27
2022-12-14T20:37:20.036Z,10.77
2022-12-14T20:39:49.257Z,11.00
2022-12-14T20:42:18.290Z,11.70
2022-12-14T20:44:49.550Z,12.03
2022-12-14T20:47:19.273Z,9.90
2022-12-14T20:49:49.567Z,11.03
2022-12-14T20:52:18.444Z,8.60
2022-12-14T20:54:47.306Z,10.63
2022-12-14T20:57:17.964Z,9.43
2022-12-14T20:59:46.833Z,10.77
2022-12-14T21:02:18.436Z,9.93
2022-12-14T21:04:47.746Z,9.77
2022-12-14T21:07:24.263Z,9.83
2022-12-14T21:09:54.819Z,12.17
2022-12-14T21:12:24.017Z,9.67
2022-12-14T21:14:54.343Z,11.77
2022-12-14T21:17:25.166Z,10.57
2022-12-14T21:19:56.101Z,13.55
2022-12-14T21:22:28.883Z,12.53
2022-12-14T21:25:06.371Z,9.13
2022-12-14T21:27:39.306Z,11.50
2022-12-14T21:30:10.338Z,15.50
2022-12-14T21:32:39.804Z,21.20
2022-12-14T21:35:11.282Z,19.80
2022-12-14T21:37:41.820Z,18.23
2022-12-14T21:40:31.888Z,18.33
2022-12-14T21:42:59.955Z,17.07
2022-12-14T21:45:28.733Z,14.43
2022-12-14T21:47:57.592Z,13.33
2022-12-14T21:50:26.712Z,10.37
2022-12-14T21:52:57.237Z,12.03
2022-12-14T21:55:26.067Z,12.33
2022-12-14T21:58:12.086Z,10.17
2022-12-14T22:00:40.915Z,10.80
2022-12-14T22:03:09.813Z,9.90
2022-12-14T22:05:42.920Z,9.53
2022-12-14T22:08:13.483Z,10.00
2022-12-14T22:10:51.933Z,8.93
2022-12-14T22:13:20.807Z,10.33
2022-12-14T22:15:50.269Z,9.93
2022-12-14T22:18:19.399Z,9.70
2022-12-14T22:20:48.474Z,8.83
2022-12-14T22:23:18.840Z,9.63
2022-12-14T22:25:51.118Z,9.30
2022-12-14T22:28:20.201Z,10.13
2022-12-14T22:30:49.431Z,10.57
2022-12-14T22:33:18.930Z,9.10
2022-12-14T22:35:47.936Z,7.77
2022-12-14T22:38:18.622Z,9.07
2022-12-14T22:40:50.291Z,10.13
2022-12-14T22:43:24.339Z,8.30
2022-12-14T22:45:56.416Z,8.87
2022-12-14T22:48:27.256Z,7.93
2022-12-14T22:51:00.015Z,7.53
2022-12-14T22:53:31.628Z,9.13
2022-12-14T22:56:11.812Z,7.93
2022-12-14T22:58:46.035Z,11.07
2022-12-14T23:01:20.163Z,8.43
2022-12-14T23:03:50.527Z,6.10
2022-12-14T23:06:25.741Z,8.17
2022-12-14T23:09:13.600Z,8.37
2022-12-14T23:12:00.937Z,9.03
2022-12-14T23:14:48.759Z,8.10
2022-12-14T23:17:35.712Z,8.00
2022-12-14T23:20:24.448Z,7.27
2022-12-14T23:23:11.160Z,8.27
2022-12-14T23:26:00.644Z,6.97
2022-12-14T23:28:50.569Z,7.57
2022-12-14T23:31:43.454Z,7.17
2022-12-14T23:34:30.958Z,7.57
2022-12-14T23:37:20.491Z,8.83
2022-12-14T23:40:07.700Z,8.57
2022-12-14T23:42:55.549Z,6.67
2022-12-14T23:45:41.680Z,7.67
2022-12-14T23:48:27.867Z,8.00
2022-12-14T23:51:18.519Z,7.40
2022-12-14T23:54:05.114Z,8.90
2022-12-14T23:56:59.754Z,8.63
2022-12-14T23:59:49.747Z,7.70
